createdAt,value
2023-03-16T00:02:42.163Z,22.47
2023-03-16T00:06:42.328Z,22.47
2023-03-16T00:10:42.463Z,22.46
2023-03-16T00:14:42.646Z,22.46
2023-03-16T00:18:42.766Z,22.45
2023-03-16T00:22:42.963Z,22.45
2023-03-16T00:26:43.077Z,22.44
2023-03-16T00:30:43.248Z,22.44
2023-03-16T00:34:43.409Z,22.44
2023-03-16T00:38:43.567Z,22.43
2023-03-16T00:42:43.741Z,22.42
2023-03-16T00:46:43.888Z,22.42
2023-03-16T00:50:44.008Z,22.42
2023-03-16T00:54:44.153Z,22.42
2023-03-16T00:58:44.322Z,22.42
2023-03-16T01:02:44.458Z,22.41
2023-03-16T01:06:44.681Z,22.40
2023-03-16T01:10:44.794Z,22.39
2023-03-16T01:14:44.984Z,22.39
2023-03-16T01:18:45.223Z,22.38
2023-03-16T01:22:45.400Z,22.38
2023-03-16T01:26:45.586Z,22.38
2023-03-16T01:30:45.786Z,22.37
2023-03-16T01:34:45.979Z,22.37
2023-03-16T01:38:46.222Z,22.36
2023-03-16T01:42:46.354Z,22.36
2023-03-16T01:46:46.544Z,22.35
2023-03-16T01:50:46.764Z,22.34
2023-03-16T01:54:46.953Z,22.34
2023-03-16T01:58:47.188Z,22.34
2023-03-16T02:02:47.364Z,22.33
2023-03-16T02:06:47.641Z,22.33
2023-03-16T02:10:47.832Z,22.32
2023-03-16T02:14:48.007Z,22.32
2023-03-16T02:18:48.184Z,22.32
2023-03-16T02:22:48.424Z,22.31
2023-03-16T02:26:48.632Z,22.30
2023-03-16T02:30:48.838Z,22.30
2023-03-16T02:34:49.060Z,22.30
2023-03-16T02:38:49.007Z,22.29
2023-03-16T02:42:48.969Z,22.29
2023-03-16T02:46:49.018Z,22.29
2023-03-16T02:50:48.908Z,22.27
2023-03-16T02:54:48.871Z,22.28
2023-03-16T02:58:48.829Z,22.27
2023-03-16T03:02:48.883Z,22.27
2023-03-16T03:06:48.718Z,22.27
2023-03-16T03:10:48.692Z,22.26
2023-03-16T03:14:48.676Z,22.26
2023-03-16T03:18:48.647Z,22.26
2023-03-16T03:22:48.587Z,22.24
2023-03-16T03:26:48.528Z,22.25
2023-03-16T03:30:48.482Z,22.25
2023-03-16T03:34:48.451Z,22.24
2023-03-16T03:38:48.399Z,22.24
2023-03-16T03:42:48.460Z,22.23
2023-03-16T03:46:48.516Z,22.23
2023-03-16T03:50:48.310Z,22.21
2023-03-16T03:54:48.404Z,22.21
2023-03-16T03:58:48.815Z,22.20
2023-03-16T04:02:48.727Z,22.21
2023-03-16T04:06:48.564Z,22.20
2023-03-16T04:10:48.515Z,22.20
2023-03-16T04:14:48.489Z,22.19
2023-03-16T04:18:48.486Z,22.19
2023-03-16T04:22:48.396Z,22.19
2023-03-16T04:26:48.390Z,22.19
2023-03-16T04:30:48.372Z,22.18
2023-03-16T04:34:48.305Z,22.18
2023-03-16T04:38:48.441Z,22.17
2023-03-16T04:42:48.660Z,22.16
2023-03-16T04:46:48.637Z,22.16
2023-03-16T04:50:48.581Z,22.16
2023-03-16T04:54:48.512Z,22.15
2023-03-16T04:58:48.512Z,22.14
2023-03-16T05:02:48.474Z,22.14
2023-03-16T05:06:48.447Z,22.14
2023-03-16T05:10:48.382Z,22.14
2023-03-16T05:14:48.379Z,22.13
2023-03-16T05:18:48.310Z,22.13
2023-03-16T05:22:48.257Z,22.12
2023-03-16T05:26:48.251Z,22.13
2023-03-16T05:30:48.273Z,22.13
2023-03-16T05:34:48.243Z,22.12
2023-03-16T05:38:48.400Z,22.12
2023-03-16T05:42:48.467Z,22.11
2023-03-16T05:46:48.721Z,22.12
2023-03-16T05:50:48.683Z,22.12
2023-03-16T05:54:48.619Z,22.12
2023-03-16T05:58:48.583Z,22.12
2023-03-16T06:02:48.600Z,22.13
2023-03-16T06:06:48.516Z,22.12
2023-03-16T06:10:48.442Z,22.13
2023-03-16T06:14:48.416Z,22.14
2023-03-16T06:18:48.371Z,22.14
2023-03-16T06:22:48.321Z,22.15
2023-03-16T06:26:48.316Z,22.16
2023-03-16T06:30:48.863Z,22.16
2023-03-16T06:34:48.701Z,22.12
2023-03-16T06:38:48.379Z,21.38
2023-03-16T06:42:48.402Z,21.28
2023-03-16T06:46:48.281Z,21.42
2023-03-16T06:50:48.392Z,21.40
2023-03-16T06:54:48.218Z,21.67
2023-03-16T06:58:48.210Z,21.87
2023-03-16T07:02:48.138Z,21.75
2023-03-16T07:06:48.417Z,21.58
2023-03-16T07:10:48.937Z,21.53
2023-03-16T07:14:51.250Z,21.51
2023-03-16T07:18:47.999Z,21.37
2023-03-16T07:22:47.974Z,21.36
2023-03-16T07:26:47.900Z,21.44
2023-03-16T07:31:02.496Z,21.46
2023-03-16T07:34:48.810Z,21.51
2023-03-16T07:38:47.821Z,21.51
2023-03-16T07:42:47.987Z,21.53
2023-03-16T07:46:48.453Z,21.74
2023-03-16T07:50:47.997Z,21.75
2023-03-16T07:54:48.076Z,21.74
2023-03-16T07:58:48.468Z,21.77
2023-03-16T08:02:48.225Z,22.00
2023-03-16T08:06:48.173Z,22.18
2023-03-16T08:10:48.437Z,22.26
2023-03-16T08:14:48.334Z,22.33
2023-03-16T08:18:48.467Z,22.35
2023-03-16T08:22:48.278Z,22.40
2023-03-16T08:26:48.444Z,22.50
2023-03-16T08:30:48.499Z,22.64
2023-03-16T09:29:33.739Z,22.99
2023-03-16T09:33:33.511Z,22.98
2023-03-16T09:37:44.595Z,22.88
2023-03-16T09:41:34.376Z,22.80
2023-03-16T09:45:33.414Z,22.85
2023-03-16T09:49:33.348Z,22.91
2023-03-16T09:53:33.376Z,22.98
2023-03-16T09:57:33.777Z,23.04
2023-03-16T10:01:33.255Z,23.09
2023-03-16T10:05:33.255Z,23.12
2023-03-16T10:09:33.181Z,23.17
2023-03-16T10:13:33.117Z,23.20
2023-03-16T10:17:33.077Z,23.23
2023-03-16T10:21:33.055Z,23.27
2023-03-16T10:25:33.081Z,23.31
2023-03-16T10:29:33.289Z,23.33
2023-03-16T10:33:33.245Z,23.31
2023-03-16T10:37:33.160Z,23.28
2023-03-16T10:41:33.348Z,23.23
2023-03-16T10:45:33.525Z,23.20
2023-03-16T10:49:34.375Z,23.18
2023-03-16T10:53:33.478Z,23.16
2023-03-16T10:57:33.487Z,23.15
2023-03-16T11:01:33.461Z,23.13
2023-03-16T11:05:33.586Z,23.12
2023-03-16T11:09:33.375Z,23.12
2023-03-16T11:13:33.305Z,23.01
2023-03-16T11:17:33.313Z,22.82
2023-03-16T11:21:33.480Z,22.24
2023-03-16T11:25:33.473Z,21.91
2023-03-16T17:14:51.288Z,24.29
2023-03-16T17:18:51.286Z,24.26
2023-03-16T17:22:51.239Z,24.23
2023-03-16T17:26:51.365Z,24.19
2023-03-16T17:30:51.354Z,24.18
2023-03-16T17:34:51.321Z,24.15
2023-03-16T17:38:51.292Z,24.12
2023-03-16T17:42:51.215Z,24.10
2023-03-16T17:46:51.206Z,24.08
2023-03-16T17:50:51.175Z,24.06
2023-03-16T17:54:51.094Z,24.03
2023-03-16T17:58:51.057Z,24.01
2023-03-16T18:02:51.052Z,23.99
2023-03-16T18:06:50.985Z,23.97
2023-03-16T18:10:50.928Z,23.95
2023-03-16T18:14:50.924Z,23.94
2023-03-16T18:18:50.862Z,23.91
2023-03-16T18:22:50.880Z,23.89
2023-03-16T18:26:50.800Z,23.87
2023-03-16T18:30:50.799Z,23.84
2023-03-16T18:34:50.762Z,23.82
2023-03-16T18:38:50.759Z,23.79
2023-03-16T18:42:50.659Z,23.77
2023-03-16T18:46:50.705Z,23.73
2023-03-16T18:50:50.605Z,23.72
2023-03-16T18:54:50.593Z,23.70
2023-03-16T18:58:50.570Z,23.67
2023-03-16T19:02:50.589Z,23.65
2023-03-16T19:06:50.627Z,23.62
2023-03-16T19:10:50.711Z,23.60
2023-03-16T19:14:50.782Z,23.58
2023-03-16T19:18:50.850Z,23.55
2023-03-16T19:22:50.923Z,23.52
2023-03-16T19:26:51.076Z,23.49
2023-03-16T19:30:51.115Z,23.47
2023-03-16T19:34:51.243Z,23.46
2023-03-16T19:38:51.333Z,23.44
2023-03-16T19:42:51.396Z,23.43
2023-03-16T19:46:51.655Z,23.42
2023-03-16T19:50:51.940Z,23.40
2023-03-16T19:54:52.026Z,23.39
2023-03-16T19:58:51.893Z,23.38
2023-03-16T20:02:52.022Z,23.37
2023-03-16T20:06:52.154Z,23.36
2023-03-16T20:10:52.281Z,23.34
2023-03-16T20:14:52.461Z,23.33
2023-03-16T20:18:52.646Z,23.31
2023-03-16T20:22:52.852Z,23.29
2023-03-16T20:26:53.038Z,23.29
2023-03-16T20:30:53.253Z,23.27
2023-03-16T20:34:53.463Z,23.26
2023-03-16T20:38:53.643Z,23.26
2023-03-16T20:42:53.829Z,23.24
2023-03-16T20:46:54.033Z,23.22
2023-03-16T20:50:54.267Z,23.20
2023-03-16T20:54:54.247Z,23.19
2023-03-16T20:58:54.167Z,23.17
2023-03-16T21:02:54.123Z,23.16
2023-03-16T21:06:54.089Z,23.15
2023-03-16T21:10:54.086Z,23.13
2023-03-16T21:14:54.039Z,23.12
2023-03-16T21:18:53.998Z,23.11
2023-03-16T21:22:53.925Z,23.10
2023-03-16T21:26:53.912Z,23.09
2023-03-16T21:30:54.070Z,23.08
2023-03-16T21:34:54.208Z,23.07
2023-03-16T21:38:54.475Z,23.06
2023-03-16T21:42:54.438Z,23.05
2023-03-16T21:46:54.453Z,23.05
2023-03-16T21:50:54.359Z,23.04
2023-03-16T21:54:54.287Z,23.03
2023-03-16T21:58:54.232Z,23.02
2023-03-16T22:02:54.362Z,23.00
2023-03-16T22:06:54.301Z,23.00
2023-03-16T22:10:54.113Z,22.99
2023-03-16T22:17:18.169Z,22.98
2023-03-16T22:21:18.148Z,22.96
2023-03-16T22:25:18.091Z,22.96
2023-03-16T22:29:18.066Z,22.95
2023-03-16T22:33:18.080Z,22.95
2023-03-16T22:37:18.024Z,22.92
2023-03-16T22:41:17.975Z,22.92
2023-03-16T22:45:17.957Z,22.92
2023-03-16T22:49:17.938Z,22.91
2023-03-16T22:53:17.866Z,22.90
2023-03-16T22:57:17.856Z,22.90
2023-03-16T23:01:18.672Z,22.89
2023-03-16T23:05:17.759Z,22.88
2023-03-16T23:09:17.695Z,22.88
2023-03-16T23:13:17.654Z,22.87
2023-03-16T23:17:17.638Z,22.87
2023-03-16T23:21:17.618Z,22.86
2023-03-16T23:25:17.573Z,22.85
2023-03-16T23:29:17.503Z,22.85
2023-03-16T23:33:17.506Z,22.84
2023-03-16T23:37:17.426Z,22.83
2023-03-16T23:41:17.441Z,22.83
2023-03-16T23:45:17.362Z,22.81
2023-03-16T23:49:17.328Z,22.81
2023-03-16T23:53:17.357Z,22.80
2023-03-16T23:57:17.347Z,22.80
